Impacts METAR Board
IDs:

KDTW - Detroit Metro/Wayne, MI, US

Updated at: 0700 UTC 24 Jan 2019
Potential Impact None Slight Moderate High
Time 23/19Z 23/20Z 23/21Z 23/22Z 23/23Z 24/00Z 24/01Z 24/02Z 24/03Z 24/04Z 24/05Z 24/06Z 24/07Z
Temp41 43 43 42 41 40 38 35 33 32 31 30 29
Dewpt38 40 39 38 37 36 32 27 24 23 21 19 19
Altim29.60 29.59 29.60 29.59 29.59 29.64 29.65 29.66 29.69 29.69 29.70 29.71 29.71
VIS1.5 1.5 4 6 10 10 10 10 10 10 10 10 10
CIG6 6 16 9 28 15 120 18 180 180 25 25 25
CoverOVCOVCOVCOVCOVCOVCOVCOVCOVCOVCOVCOVCOVC
FltCatIFRIFRMVFRIFRMVFRMVFRVFRMVFRVFRVFRMVFRMVFRMVFR
WX-RA BR-RA BR-RA BRBR------------------
WDir200230220210240250260270290290310320310
WSpd13 14 16 17 12 12 9 16 11 11 16 13 11
WGst-- -- -- -- -- -- -- 22 20 -- 20 18 --
Raw hourly METARs
KDTW 231853Z 20013KT 1 1/2SM R03R/5500VP6000FT -RA BR OVC006 05/03 A2960 RMK AO2 SLP030 P0002 T00500033
KDTW 231953Z 23014KT 1 1/2SM -RA BR OVC006 06/04 A2959 RMK AO2 SLP023 P0002 T00610044
KDTW 232053Z 22016KT 4SM -RA BR FEW009 BKN016 OVC023 06/04 A2960 RMK AO2 SLP026 P0002 60006 T00610039 55010
KDTW 232153Z 21017KT 6SM BR OVC009 06/03 A2959 RMK AO2 RAE44 SLP026 P0001 T00560033
KDTW 232300Z 24012KT 10SM SCT011 BKN028 OVC040 05/03 A2959 RMK AO2 T00500028
KDTW 232353Z 25012KT 10SM BKN015 OVC025 04/02 A2964 RMK AO2 SLP043 60007 T00440022 10061 20044 53016
KDTW 240053Z 26009KT 10SM FEW015 SCT025 OVC120 03/00 A2965 RMK AO2 SLP047 T00330000
KDTW 240153Z 27016G22KT 10SM OVC018 02/M03 A2966 RMK AO2 SLP050 T00171028
KDTW 240253Z 29011G20KT 10SM SCT020 OVC180 01/M04 A2969 RMK AO2 SLP058 T00061044 53014
KDTW 240353Z 29011KT 10SM SCT025 OVC180 00/M05 A2969 RMK AO2 SLP060 T00001050
KDTW 240453Z 31016G20KT 10SM OVC025 M01/M06 A2970 RMK AO2 SLP064 T10061061 400611011
KDTW 240553Z 32013G18KT 10SM OVC025 M01/M07 A2971 RMK AO2 SLP065 T10111072 10044 21011 51007
KDTW 240653Z 31011KT 10SM OVC025 M02/M07 A2971 RMK AO2 SLP065 T10171072



Page loaded:  07:14 UTC  |   11:14 PM Pacific  |   12:14 AM Mountain  |   01:14 AM Central  |   02:14 AM Eastern

 

ADVISORIES

FORECASTS

FORECASTS

OBSERVATIONS

USER TOOLS

ABOUT US